Fulton, Indiana
Current Conditions -  °F | °C
As of 5:35 PM on Monday 24 Nov 2014 (Local Time) from KRCR Reporting Station
Broken Clouds Broken Clouds  
Wind Chill: 21°   Ceiling: 1700
Heat Index: 34°   Visibility: 10mi
Dew Point: 32°   Wind: 25mph
Humidity: 93%   Direction: 240°WSW
Pressure: 29.66"   Gusts: 32mph
Location:  40.95°N, 86.26°W
Report Text: KRCR 242235Z AUTO 24022G28KT 10SM BKN017 BKN028 01/00 A2966 RMK AO2
Loading
Personal Weather Stations






























Interactive Weather Map New forecast layout! Learn more

10-Day Weather Forecast

Advertisements
Track Severe Weather on mobile